Terminal Aerodrome Forecast
Issued by NWS Tuscon, AZ

Home | Current Version | Previous Version | Text Only | Print | Product List | Glossary On
Versions: 1 2 3 4 5 6 7 8 9 10 11 12
877
FTUS45 KTWC 230527
TAFDUG
TAF
KDUG 230527Z 2306/2406 23012G18KT P6SM SKC
     FM231400 24014KT P6SM SCT050 SCT080
     FM231800 27020G33KT P6SM SCT080
     FM240200 30018G26KT P6SM SKC=

USA.gov is the U.S. government's official web portal to all federal, state and local government web resources and services.